createdAt,value
2023-01-19T00:09:33.235Z,1.33
2023-01-19T00:19:34.562Z,1.34
2023-01-19T00:29:36.051Z,1.34
2023-01-19T00:39:37.558Z,1.46
2023-01-19T00:49:39.208Z,1.48
2023-01-19T00:59:40.685Z,1.50
2023-01-19T01:09:42.065Z,1.48
2023-01-19T01:19:43.503Z,1.53
2023-01-19T01:29:47.751Z,1.65
2023-01-19T01:39:49.214Z,1.71
2023-01-19T01:49:56.131Z,1.70
2023-01-19T01:59:58.452Z,1.71
2023-01-19T02:10:18.235Z,1.74
2023-01-19T02:20:23.929Z,1.76
2023-01-19T02:30:25.762Z,1.70
2023-01-19T02:40:28.422Z,1.75
2023-01-19T02:50:36.112Z,1.70
2023-01-19T03:01:05.211Z,1.78
2023-01-19T03:11:10.326Z,1.74
2023-01-19T03:21:14.088Z,1.77
2023-01-19T03:31:20.800Z,1.78
2023-01-19T03:41:24.491Z,1.83
2023-01-19T03:51:26.836Z,1.85
2023-01-19T04:01:28.408Z,1.81
2023-01-19T04:11:29.983Z,1.68
2023-01-19T04:21:31.393Z,1.54
2023-01-19T04:31:33.270Z,1.56
2023-01-19T04:41:34.713Z,1.50
2023-01-19T04:51:36.892Z,1.52
2023-01-19T05:01:38.518Z,1.50
2023-01-19T05:11:39.959Z,1.48
2023-01-19T05:21:41.375Z,1.46
2023-01-19T05:31:43.102Z,1.44
2023-01-19T05:41:45.508Z,1.43
2023-01-19T05:51:47.259Z,1.47
2023-01-19T06:01:48.715Z,1.48
2023-01-19T06:11:50.400Z,1.49
2023-01-19T06:21:52.320Z,1.47
2023-01-19T06:31:54.069Z,1.46
2023-01-19T06:41:55.567Z,1.44
2023-01-19T06:51:56.972Z,1.61
2023-01-19T07:01:58.945Z,1.59
2023-01-19T07:12:00.611Z,1.65
2023-01-19T07:22:03.128Z,1.65
2023-01-19T07:32:04.741Z,1.70
2023-01-19T07:42:07.153Z,1.76
2023-01-19T07:52:09.510Z,1.77
2023-01-19T08:02:12.030Z,1.82
2023-01-19T08:12:13.431Z,1.82
2023-01-19T08:22:14.952Z,1.88
2023-01-19T08:32:17.120Z,1.92
2023-01-19T08:42:18.611Z,1.97
2023-01-19T08:52:20.053Z,2.06
2023-01-19T09:02:21.691Z,2.06
2023-01-19T09:12:23.316Z,2.12
2023-01-19T09:22:25.411Z,2.21
2023-01-19T09:32:26.938Z,2.27
2023-01-19T09:42:35.972Z,2.37
2023-01-19T09:52:43.641Z,2.42
2023-01-19T10:02:52.956Z,2.41
2023-01-19T10:13:13.449Z,2.46
2023-01-19T10:23:34.772Z,2.51
2023-01-19T10:33:38.055Z,2.61
2023-01-19T10:43:47.185Z,2.66
2023-01-19T10:53:54.696Z,2.77
2023-01-19T11:04:05.330Z,2.82
2023-01-19T11:14:12.625Z,2.92
2023-01-19T11:24:16.365Z,2.99
2023-01-19T11:34:30.104Z,3.02
2023-01-19T11:44:36.012Z,3.09
2023-01-19T11:54:46.771Z,3.16
2023-01-19T12:04:50.483Z,3.19
2023-01-19T12:15:14.955Z,3.26
2023-01-19T12:25:24.886Z,3.31
2023-01-19T12:35:57.350Z,3.35
2023-01-19T12:45:58.935Z,3.42
2023-01-19T12:56:08.628Z,3.50
2023-01-19T13:06:10.116Z,3.55
2023-01-19T13:16:29.555Z,3.57
2023-01-19T13:26:34.546Z,3.63
2023-01-19T13:36:38.276Z,3.71
2023-01-19T13:46:40.961Z,3.76
2023-01-19T13:56:54.716Z,3.77
2023-01-19T14:07:03.594Z,3.83
2023-01-19T14:17:16.416Z,3.79
2023-01-19T14:27:19.992Z,3.79
2023-01-19T14:37:26.306Z,3.76
2023-01-19T14:47:31.939Z,3.77
2023-01-19T14:57:36.074Z,3.72
2023-01-19T15:07:41.447Z,3.73
2023-01-19T15:17:43.261Z,3.67
2023-01-19T15:27:46.035Z,3.55
2023-01-19T15:37:48.868Z,3.49
2023-01-19T15:47:50.343Z,3.45
2023-01-19T15:57:51.748Z,3.36
2023-01-19T16:07:53.249Z,3.32
2023-01-19T16:17:54.731Z,3.26
2023-01-19T16:27:57.063Z,3.22
2023-01-19T16:37:58.513Z,3.14
2023-01-19T16:48:00.319Z,3.08
2023-01-19T16:58:01.922Z,3.02
2023-01-19T17:08:03.488Z,2.99
2023-01-19T17:18:05.374Z,2.95
2023-01-19T17:28:06.835Z,2.91
2023-01-19T17:38:08.412Z,2.80
2023-01-19T17:48:09.955Z,2.86
2023-01-19T17:58:11.462Z,2.83
2023-01-19T18:08:12.797Z,2.77
2023-01-19T18:18:14.556Z,2.77
2023-01-19T18:28:15.958Z,2.74
2023-01-19T18:38:17.629Z,2.75
2023-01-19T18:48:19.198Z,2.73
2023-01-19T18:58:20.876Z,2.70
2023-01-19T19:08:22.583Z,2.74
2023-01-19T19:18:24.171Z,2.73
2023-01-19T19:28:25.638Z,2.73
2023-01-19T19:38:28.043Z,2.66
2023-01-19T19:48:30.191Z,2.65
2023-01-19T19:58:32.339Z,2.57
2023-01-19T20:08:34.071Z,2.45
2023-01-19T20:18:36.809Z,2.44
2023-01-19T20:28:39.094Z,2.31
2023-01-19T20:38:41.794Z,2.12
2023-01-19T20:48:43.215Z,1.94
2023-01-19T20:58:44.738Z,1.78
2023-01-19T21:08:46.533Z,1.71
2023-01-19T21:18:48.012Z,1.65
2023-01-19T21:28:50.505Z,1.53
2023-01-19T21:38:52.327Z,1.42
2023-01-19T21:48:53.799Z,1.31
2023-01-19T21:58:56.684Z,1.27
2023-01-19T22:08:58.390Z,1.26
2023-01-19T22:19:01.981Z,1.28
2023-01-19T22:29:06.312Z,1.18
2023-01-19T22:39:10.138Z,1.09
2023-01-19T22:49:14.107Z,1.21
2023-01-19T22:59:15.709Z,1.09
2023-01-19T23:09:18.058Z,1.07
2023-01-19T23:19:19.625Z,1.31
2023-01-19T23:29:21.215Z,1.43
2023-01-19T23:39:22.961Z,1.61
2023-01-19T23:49:24.500Z,1.56
2023-01-19T23:59:26.071Z,1.57
